Time;durP1;ratioP1;P1;durP2;ratioP2;P2;SDS_P1;SDS_P2;PMS_P1;PMS_P2;Temp;Humidity;BMP_temperature;BMP_pressure;BME280_temperature;BME280_humidity;BME280_pressure;Samples;Min_cycle;Max_cycle;Signal;HPM_P1;HPM_P2
2021/01/27 00:02:18;;;;;;;23.73;17.58;;;2.70;94.80;;;;;;5018089;28;20416;-75
2021/01/27 00:04:43;;;;;;;23.33;18.20;;;2.70;94.80;;;;;;5020826;28;20096;-75
2021/01/27 00:07:09;;;;;;;22.98;18.45;;;2.80;94.70;;;;;;5022866;28;20510;-75
2021/01/27 00:09:35;;;;;;;24.88;18.52;;;2.70;94.70;;;;;;5025014;28;20092;-75
2021/01/27 00:12:01;;;;;;;26.40;18.88;;;2.80;94.60;;;;;;5022005;28;20042;-75
2021/01/27 00:14:27;;;;;;;23.55;18.73;;;2.70;94.60;;;;;;5019893;28;20547;-75
2021/01/27 00:16:53;;;;;;;26.30;19.83;;;2.70;94.60;;;;;;5021882;28;20037;-75
2021/01/27 00:19:19;;;;;;;23.75;18.77;;;2.70;94.60;;;;;;5019972;28;20037;-74
2021/01/27 00:21:44;;;;;;;26.25;18.20;;;2.70;94.50;;;;;;5020506;28;20029;-74
2021/01/27 00:24:10;;;;;;;24.88;17.98;;;2.70;94.50;;;;;;5021203;28;20033;-75
2021/01/27 00:26:36;;;;;;;20.85;18.45;;;2.70;94.50;;;;;;5023697;28;20488;-75
2021/01/27 00:29:02;;;;;;;25.90;18.50;;;2.70;94.50;;;;;;5022873;28;20087;-75
2021/01/27 00:31:27;;;;;;;26.27;18.70;;;2.70;94.50;;;;;;5022415;28;20046;-74
2021/01/27 00:33:53;;;;;;;27.13;19.65;;;2.60;94.50;;;;;;5023119;28;20041;-75
2021/01/27 00:36:19;;;;;;;21.98;19.05;;;2.70;94.50;;;;;;5015243;28;20880;-75
2021/01/27 00:38:44;;;;;;;28.77;20.50;;;2.60;94.50;;;;;;5020301;28;20037;-74
2021/01/27 00:41:10;;;;;;;28.45;19.45;;;2.60;94.50;;;;;;5017900;28;20037;-75
2021/01/27 00:43:36;;;;;;;25.48;19.20;;;2.60;94.50;;;;;;5019157;28;20045;-75
2021/01/27 00:46:01;;;;;;;27.50;20.23;;;2.70;94.50;;;;;;5023989;28;20046;-74
2021/01/27 00:48:27;;;;;;;25.92;20.08;;;2.70;94.50;;;;;;5012886;28;20475;-74
2021/01/27 00:50:53;;;;;;;26.10;20.25;;;2.70;94.60;;;;;;5022826;28;20410;-74
2021/01/27 00:53:19;;;;;;;26.67;20.85;;;2.60;94.60;;;;;;5015578;28;20041;-75
2021/01/27 00:55:44;;;;;;;31.70;21.25;;;2.60;94.60;;;;;;5023915;28;20068;-75
2021/01/27 00:58:11;;;;;;;28.27;20.30;;;2.60;94.60;;;;;;5019716;28;20045;-75
2021/01/27 01:00:39;;;;;;;27.35;20.15;;;2.60;94.60;;;;;;5021761;28;20040;-74
2021/01/27 01:03:07;;;;;;;24.75;20.23;;;2.70;94.50;;;;;;5021377;28;20040;-74
2021/01/27 01:05:35;;;;;;;29.77;21.50;;;2.80;94.60;;;;;;5016178;28;20041;-74
2021/01/27 01:08:01;;;;;;;27.85;21.52;;;2.60;94.50;;;;;;5017465;28;20163;-75
2021/01/27 01:10:30;;;;;;;24.42;20.70;;;2.60;94.50;;;;;;5020282;28;20112;-75
2021/01/27 01:12:56;;;;;;;31.48;21.52;;;2.60;94.50;;;;;;5024096;28;20502;-75
2021/01/27 01:15:25;;;;;;;26.10;21.27;;;2.60;94.50;;;;;;5023217;28;20045;-75
2021/01/27 01:17:50;;;;;;;23.90;19.67;;;2.60;94.50;;;;;;5019616;28;20522;-75
2021/01/27 01:20:17;;;;;;;31.48;22.35;;;2.60;94.40;;;;;;5023283;28;21428;-75
2021/01/27 01:22:44;;;;;;;27.70;21.73;;;2.70;94.50;;;;;;5020261;28;20099;-75
2021/01/27 01:25:11;;;;;;;31.30;21.60;;;2.60;94.40;;;;;;5020727;28;20037;-75
2021/01/27 01:27:37;;;;;;;26.60;20.13;;;2.60;94.40;;;;;;5022326;28;21156;-74
2021/01/27 01:30:35;;;;;;;26.00;21.52;;;2.60;94.30;;;;;;5021191;28;20514;-74
2021/01/27 01:33:05;;;;;;;23.02;19.02;;;2.60;94.30;;;;;;5021993;28;20029;-75
2021/01/27 01:35:31;;;;;;;23.67;19.70;;;2.60;94.30;;;;;;5016892;28;20559;-75
2021/01/27 01:37:56;;;;;;;23.08;19.38;;;2.60;94.20;;;;;;5022687;28;20117;-75
2021/01/27 01:40:29;;;;;;;27.42;19.27;;;2.50;94.20;;;;;;5020109;28;20061;-75
2021/01/27 01:43:26;;;;;;;25.05;18.85;;;2.60;94.10;;;;;;5020506;28;20042;-75
2021/01/27 01:45:55;;;;;;;24.58;18.70;;;2.60;94.00;;;;;;5018958;28;20040;-74
2021/01/27 01:48:38;;;;;;;20.92;17.67;;;2.60;93.90;;;;;;5020257;28;20041;-75
2021/01/27 01:51:29;;;;;;;22.30;17.50;;;2.70;93.80;;;;;;5021702;28;20045;-75
2021/01/27 01:53:58;;;;;;;23.92;16.83;;;2.60;93.80;;;;;;5020706;28;20124;-75
2021/01/27 01:56:30;;;;;;;17.63;15.82;;;2.60;93.60;;;;;;5027440;28;20045;-74
2021/01/27 01:59:00;;;;;;;21.38;16.90;;;2.60;93.40;;;;;;5025093;28;20045;-74
2021/01/27 02:01:27;;;;;;;21.58;15.07;;;2.60;93.40;;;;;;5022617;28;20045;-75
2021/01/27 02:03:53;;;;;;;17.52;14.52;;;2.60;93.30;;;;;;5024585;28;20040;-75
2021/01/27 02:06:19;;;;;;;19.95;14.15;;;2.60;93.10;;;;;;5026203;28;20038;-75
2021/01/27 02:08:49;;;;;;;16.15;12.90;;;2.60;93.00;;;;;;5023091;28;20045;-75
2021/01/27 02:11:17;;;;;;;17.65;13.07;;;2.60;93.00;;;;;;5027976;28;20030;-75
2021/01/27 02:14:15;;;;;;;15.98;11.50;;;2.60;92.70;;;;;;5025111;28;20108;-75
2021/01/27 02:17:03;;;;;;;12.68;10.70;;;2.60;92.40;;;;;;5025401;28;20033;-75
2021/01/27 02:20:10;;;;;;;15.10;11.05;;;2.70;92.50;;;;;;5028032;28;20033;-75
2021/01/27 02:22:42;;;;;;;16.90;11.13;;;2.60;92.10;;;;;;5023775;28;20045;-75
2021/01/27 02:25:32;;;;;;;14.50;10.68;;;2.70;92.30;;;;;;5027621;28;20053;-75
2021/01/27 02:28:02;;;;;;;11.95;10.68;;;2.60;92.10;;;;;;5020306;28;20130;-74
2021/01/27 02:30:41;;;;;;;15.60;10.88;;;2.60;92.00;;;;;;5020211;28;20202;-75
2021/01/27 02:33:35;;;;;;;13.73;10.23;;;2.60;92.10;;;;;;5020009;28;20054;-75
2021/01/27 02:36:05;;;;;;;13.13;10.23;;;2.60;92.00;;;;;;5022286;28;20440;-75
2021/01/27 02:38:36;;;;;;;14.90;10.35;;;2.50;92.00;;;;;;5022496;28;20095;-75
2021/01/27 02:41:17;;;;;;;17.02;10.27;;;2.60;92.00;;;;;;5027467;28;20096;-75
2021/01/27 02:43:46;;;;;;;12.02;9.75;;;2.50;91.90;;;;;;5025193;28;20041;-75
2021/01/27 02:46:31;;;;;;;10.00;8.63;;;2.50;91.90;;;;;;5021478;28;20053;-74
2021/01/27 02:49:23;;;;;;;13.03;9.80;;;2.50;91.70;;;;;;5020299;28;20369;-75
2021/01/27 02:52:12;;;;;;;11.77;9.00;;;2.30;91.80;;;;;;5019119;28;20380;-75
2021/01/27 02:54:58;;;;;;;13.85;9.52;;;2.50;91.80;;;;;;5021455;28;20041;-75
2021/01/27 02:57:49;;;;;;;11.90;8.77;;;2.50;91.80;;;;;;5022568;28;20568;-75
2021/01/27 03:00:21;;;;;;;11.57;9.00;;;2.50;91.70;;;;;;5001160;28;20510;-75
2021/01/27 03:03:12;;;;;;;11.70;8.95;;;2.50;91.60;;;;;;5024407;28;20048;-75
2021/01/27 03:05:41;;;;;;;11.02;8.25;;;2.40;91.50;;;;;;5025752;28;20185;-75
2021/01/27 03:08:15;;;;;;;12.18;8.68;;;2.40;91.60;;;;;;5021526;28;20041;-75
2021/01/27 03:10:47;;;;;;;13.32;9.02;;;2.40;91.60;;;;;;5023985;28;20040;-74
2021/01/27 03:13:12;;;;;;;13.70;9.15;;;2.50;91.70;;;;;;5024583;28;20132;-74
2021/01/27 03:15:39;;;;;;;11.95;9.23;;;2.40;91.60;;;;;;5021998;28;20190;-75
2021/01/27 03:18:12;;;;;;;12.73;8.25;;;2.40;91.60;;;;;;5019105;28;20049;-75
2021/01/27 03:20:40;;;;;;;12.18;8.18;;;2.40;91.50;;;;;;5022958;28;20045;-75
2021/01/27 03:23:25;;;;;;;12.50;8.73;;;2.40;91.40;;;;;;5017160;28;20033;-75
2021/01/27 03:26:19;;;;;;;11.88;8.13;;;2.40;91.60;;;;;;5022402;28;20535;-75
2021/01/27 03:28:59;;;;;;;13.88;8.23;;;2.40;91.60;;;;;;5017130;28;20116;-75
2021/01/27 03:31:25;;;;;;;11.15;8.00;;;2.40;91.50;;;;;;5021816;28;20041;-75
2021/01/27 03:34:06;;;;;;;14.02;7.80;;;2.40;91.70;;;;;;5019559;28;20042;-75
2021/01/27 03:36:41;;;;;;;14.38;8.27;;;2.40;91.40;;;;;;5021145;28;20046;-75
2021/01/27 03:39:08;;;;;;;14.00;6.60;;;2.40;91.50;;;;;;5023274;28;20396;-75
2021/01/27 03:41:35;;;;;;;10.38;7.22;;;2.40;91.50;;;;;;5021860;28;20038;-75
2021/01/27 03:44:04;;;;;;;13.75;7.55;;;2.40;91.50;;;;;;5019600;28;20065;-75
2021/01/27 03:46:45;;;;;;;8.80;6.40;;;2.40;91.50;;;;;;5024243;28;20535;-75
2021/01/27 03:49:22;;;;;;;9.48;7.00;;;2.40;91.50;;;;;;5015222;28;20450;-75
2021/01/27 03:51:57;;;;;;;9.25;6.10;;;2.50;91.50;;;;;;5021862;28;20082;-75
2021/01/27 03:54:25;;;;;;;17.25;7.20;;;2.50;91.40;;;;;;5019659;28;20680;-75
2021/01/27 03:57:19;;;;;;;12.15;6.75;;;2.40;91.30;;;;;;5017122;28;20041;-75
2021/01/27 03:59:46;;;;;;;12.77;6.55;;;2.50;91.40;;;;;;5017638;28;20401;-75
2021/01/27 04:02:16;;;;;;;9.55;6.57;;;2.50;91.40;;;;;;5021277;28;20053;-75
2021/01/27 04:04:41;;;;;;;8.50;5.90;;;2.50;91.40;;;;;;5022253;28;20439;-75
2021/01/27 04:07:07;;;;;;;9.32;6.57;;;2.50;91.20;;;;;;5022802;28;20037;-75
2021/01/27 04:09:32;;;;;;;9.63;5.65;;;2.40;91.30;;;;;;5021993;28;20075;-75
2021/01/27 04:11:58;;;;;;;8.80;6.13;;;2.50;91.40;;;;;;5019874;28;20045;-75
2021/01/27 04:14:24;;;;;;;11.35;6.60;;;2.50;91.20;;;;;;5023605;28;20069;-75
2021/01/27 04:16:49;;;;;;;10.23;6.10;;;2.60;91.50;;;;;;5018046;28;20041;-75
2021/01/27 04:19:15;;;;;;;9.55;6.47;;;2.50;91.60;;;;;;5021419;28;20462;-75
2021/01/27 04:21:42;;;;;;;8.77;6.20;;;2.50;91.50;;;;;;5022249;28;20515;-75
2021/01/27 04:24:08;;;;;;;8.55;6.45;;;2.50;91.60;;;;;;5024622;28;20037;-75
2021/01/27 04:26:35;;;;;;;10.13;6.68;;;2.50;91.60;;;;;;5017960;28;20033;-75
2021/01/27 04:29:01;;;;;;;8.80;6.00;;;2.50;91.70;;;;;;5024741;28;20084;-75
2021/01/27 04:31:27;;;;;;;5.88;4.82;;;2.50;91.80;;;;;;5023502;28;20034;-75
2021/01/27 04:33:53;;;;;;;10.30;6.22;;;2.50;91.80;;;;;;5021869;28;20052;-75
2021/01/27 04:36:18;;;;;;;10.40;5.90;;;2.50;91.80;;;;;;5026685;28;20038;-75
2021/01/27 04:38:44;;;;;;;7.10;5.97;;;2.50;91.90;;;;;;5020714;28;20120;-75
2021/01/27 04:41:10;;;;;;;9.82;6.57;;;2.50;92.00;;;;;;5019870;28;20387;-76
2021/01/27 04:43:41;;;;;;;11.52;6.20;;;2.50;92.10;;;;;;5024072;28;20033;-76
2021/01/27 04:46:16;;;;;;;9.32;6.00;;;2.40;92.30;;;;;;5018625;28;20065;-76
2021/01/27 04:48:47;;;;;;;6.75;5.57;;;2.50;92.40;;;;;;5017625;28;20504;-75
2021/01/27 04:51:19;;;;;;;8.57;6.38;;;2.40;92.40;;;;;;5019283;28;20045;-75
2021/01/27 04:54:29;;;;;;;11.27;6.50;;;2.40;92.60;;;;;;5017906;28;20092;-75
2021/01/27 04:57:18;;;;;;;9.30;6.10;;;2.40;92.80;;;;;;5005450;28;20033;-76
2021/01/27 05:00:08;;;;;;;9.55;6.40;;;2.40;92.90;;;;;;5019871;28;20072;-75
2021/01/27 05:03:11;;;;;;;11.15;5.75;;;2.40;93.10;;;;;;5020872;28;20041;-76
2021/01/27 05:05:41;;;;;;;8.75;6.07;;;2.40;93.10;;;;;;5019081;28;20091;-75
2021/01/27 05:08:13;;;;;;;11.07;6.32;;;2.40;93.00;;;;;;5021265;28;20124;-75
2021/01/27 05:10:56;;;;;;;8.07;5.85;;;2.40;93.00;;;;;;5020990;28;20507;-75
2021/01/27 05:13:31;;;;;;;8.93;5.63;;;2.40;92.90;;;;;;5021460;28;20431;-75
2021/01/27 05:16:09;;;;;;;7.22;5.55;;;2.40;92.70;;;;;;5016462;28;20357;-75
2021/01/27 05:18:35;;;;;;;6.88;5.72;;;2.40;92.70;;;;;;5014641;28;20041;-75
2021/01/27 05:21:01;;;;;;;7.50;5.22;;;2.40;92.60;;;;;;5024764;28;20368;-75
2021/01/27 05:23:26;;;;;;;10.02;6.15;;;2.60;92.60;;;;;;5019434;28;20037;-75
2021/01/27 05:26:11;;;;;;;12.98;6.35;;;2.50;92.70;;;;;;5019760;28;20042;-75
2021/01/27 05:28:46;;;;;;;9.23;7.40;;;2.50;92.90;;;;;;5018534;28;20503;-75
2021/01/27 05:31:12;;;;;;;11.88;6.85;;;2.50;92.70;;;;;;5021483;28;20030;-75
2021/01/27 05:33:51;;;;;;;10.18;6.68;;;2.40;92.60;;;;;;5016463;28;20041;-75
2021/01/27 05:36:25;;;;;;;9.57;6.93;;;2.40;92.60;;;;;;5021112;28;20100;-75
2021/01/27 05:38:57;;;;;;;10.57;7.15;;;2.40;92.60;;;;;;5015578;28;20073;-75
2021/01/27 05:41:28;;;;;;;8.40;6.75;;;2.40;92.60;;;;;;5018726;28;20048;-75
2021/01/27 05:44:06;;;;;;;11.45;7.25;;;2.40;92.60;;;;;;5017461;28;20038;-75
2021/01/27 05:46:35;;;;;;;6.90;6.20;;;2.40;92.60;;;;;;5015167;28;20092;-75
2021/01/27 05:49:01;;;;;;;7.32;6.15;;;2.40;92.40;;;;;;5017762;28;20050;-75
2021/01/27 05:51:28;;;;;;;12.57;6.43;;;2.40;92.30;;;;;;5021770;28;20041;-75
2021/01/27 05:53:55;;;;;;;8.00;6.18;;;2.50;92.40;;;;;;5016978;28;20052;-75
2021/01/27 05:56:25;;;;;;;8.48;6.45;;;2.50;92.40;;;;;;5018716;28;20087;-75
2021/01/27 05:58:55;;;;;;;6.70;5.75;;;2.50;92.40;;;;;;5019230;28;20045;-75
2021/01/27 06:01:31;;;;;;;6.22;5.35;;;2.50;92.40;;;;;;5022592;28;20048;-75
2021/01/27 06:04:22;;;;;;;8.00;5.40;;;2.50;92.40;;;;;;5021113;28;20048;-75
2021/01/27 06:06:49;;;;;;;6.10;4.68;;;2.50;92.40;;;;;;5017223;28;20038;-75
2021/01/27 06:09:42;;;;;;;5.05;4.57;;;2.50;92.50;;;;;;5019027;28;20052;-75
2021/01/27 06:12:12;;;;;;;6.60;4.70;;;2.50;92.60;;;;;;5011366;28;20041;-75
2021/01/27 06:14:39;;;;;;;6.25;4.95;;;2.40;92.80;;;;;;5019334;28;20049;-75
2021/01/27 06:17:47;;;;;;;6.70;5.40;;;2.40;93.00;;;;;;5016531;28;20038;-74
2021/01/27 06:20:16;;;;;;;6.38;4.97;;;2.40;93.20;;;;;;5010665;28;20609;-75
2021/01/27 06:23:06;;;;;;;5.78;4.78;;;2.30;93.30;;;;;;5012724;28;20049;-75
2021/01/27 06:25:56;;;;;;;5.60;4.85;;;2.30;93.40;;;;;;5014149;28;20044;-75
2021/01/27 06:28:59;;;;;;;8.93;5.30;;;2.30;93.50;;;;;;5013989;28;20403;-75
2021/01/27 06:31:46;;;;;;;6.75;5.30;;;2.20;93.60;;;;;;5022412;28;20042;-76
2021/01/27 06:34:52;;;;;;;6.57;5.40;;;2.10;93.70;;;;;;5013453;28;20046;-75
2021/01/27 06:37:17;;;;;;;11.25;6.50;;;2.10;93.90;;;;;;5014814;28;20511;-75
2021/01/27 06:40:02;;;;;;;6.45;5.78;;;2.00;94.00;;;;;;5024075;28;20385;-75
2021/01/27 06:42:51;;;;;;;7.93;5.97;;;1.90;94.00;;;;;;5023378;28;20038;-74
2021/01/27 06:45:32;;;;;;;8.68;6.47;;;1.90;94.10;;;;;;5027146;28;20044;-74
2021/01/27 06:48:23;;;;;;;8.60;6.72;;;1.80;94.20;;;;;;5021039;28;20033;-74
2021/01/27 06:51:08;;;;;;;9.00;6.78;;;1.70;94.40;;;;;;5026353;28;20052;-74
2021/01/27 06:53:36;;;;;;;9.82;7.30;;;1.70;94.60;;;;;;5019106;28;20123;-74
2021/01/27 06:56:11;;;;;;;9.18;6.95;;;1.60;94.60;;;;;;5024149;28;20041;-74
2021/01/27 06:59:14;;;;;;;12.98;7.28;;;1.60;94.60;;;;;;5019527;28;20141;-75
2021/01/27 07:02:17;;;;;;;10.45;7.32;;;1.60;94.70;;;;;;5022005;28;20044;-74
2021/01/27 07:05:21;;;;;;;11.18;6.85;;;1.60;94.80;;;;;;5026546;28;20048;-74
2021/01/27 07:08:05;;;;;;;11.25;8.15;;;1.50;94.90;;;;;;5020011;28;20488;-75
2021/01/27 07:10:59;;;;;;;10.15;7.30;;;1.50;94.90;;;;;;5027047;28;20029;-75
2021/01/27 07:13:55;;;;;;;9.20;8.15;;;1.50;94.90;;;;;;5000409;28;20113;-75
2021/01/27 07:16:26;;;;;;;11.15;7.80;;;1.50;94.90;;;;;;5023260;28;20050;-75
2021/01/27 07:19:18;;;;;;;9.48;7.63;;;1.50;95.00;;;;;;5026183;28;20045;-75
2021/01/27 07:22:13;;;;;;;8.25;7.25;;;1.50;95.10;;;;;;5025817;28;20044;-75
2021/01/27 07:25:02;;;;;;;11.10;7.88;;;1.50;95.10;;;;;;5020717;28;20480;-74
2021/01/27 07:27:31;;;;;;;10.48;8.10;;;1.40;95.10;;;;;;5012666;28;20049;-75
2021/01/27 07:30:06;;;;;;;10.02;8.50;;;1.40;95.20;;;;;;5018391;28;20053;-74
2021/01/27 07:32:59;;;;;;;9.55;7.45;;;1.40;95.20;;;;;;5019042;28;20091;-74
2021/01/27 07:35:31;;;;;;;8.05;7.25;;;1.40;95.30;;;;;;5021867;28;20041;-74
2021/01/27 07:38:11;;;;;;;9.80;7.88;;;1.40;95.30;;;;;;5021603;28;20038;-74
2021/01/27 07:40:54;;;;;;;9.20;8.27;;;1.40;95.30;;;;;;5025126;28;20042;-74
2021/01/27 07:43:25;;;;;;;8.85;7.78;;;1.40;95.30;;;;;;5019871;28;20466;-74
2021/01/27 07:45:55;;;;;;;13.38;9.15;;;1.40;95.40;;;;;;5028331;28;20029;-74
2021/01/27 07:48:36;;;;;;;10.20;8.75;;;1.50;95.30;;;;;;5020321;28;20384;-74
2021/01/27 07:51:15;;;;;;;8.98;8.18;;;1.40;95.40;;;;;;5025782;28;20389;-74
2021/01/27 07:54:04;;;;;;;11.27;9.38;;;1.40;95.50;;;;;;5025002;28;20052;-75
2021/01/27 07:56:49;;;;;;;12.95;9.32;;;1.40;95.50;;;;;;5025946;28;20064;-75
2021/01/27 07:59:27;;;;;;;9.80;8.80;;;1.40;95.50;;;;;;5022724;28;20033;-75
2021/01/27 08:02:18;;;;;;;9.77;8.57;;;1.40;95.40;;;;;;5023085;28;20076;-75
2021/01/27 08:04:48;;;;;;;9.80;8.20;;;1.30;95.50;;;;;;5023785;28;20044;-75
2021/01/27 08:07:30;;;;;;;11.75;9.10;;;1.30;95.60;;;;;;5022670;28;20099;-75
2021/01/27 08:10:15;;;;;;;11.05;9.43;;;1.30;95.70;;;;;;5018594;28;20041;-75
2021/01/27 08:12:42;;;;;;;13.07;8.55;;;1.30;95.60;;;;;;5021319;28;20038;-74
2021/01/27 08:15:12;;;;;;;10.82;9.38;;;1.30;95.80;;;;;;5022051;28;20040;-74
2021/01/27 08:17:45;;;;;;;9.65;8.23;;;1.30;95.80;;;;;;5017942;28;20079;-75
2021/01/27 08:20:16;;;;;;;10.75;9.25;;;1.30;95.80;;;;;;5023020;28;20496;-74
2021/01/27 08:22:54;;;;;;;9.90;7.07;;;1.30;95.90;;;;;;5020136;28;20411;-75
2021/01/27 08:25:54;;;;;;;8.65;7.80;;;1.30;95.90;;;;;;5027129;28;20088;-75
2021/01/27 08:28:24;;;;;;;8.68;7.85;;;1.30;95.80;;;;;;5027795;28;20040;-74
2021/01/27 08:31:12;;;;;;;11.15;7.65;;;1.30;95.80;;;;;;5014129;28;20377;-74
2021/01/27 08:33:46;;;;;;;9.77;8.65;;;1.30;95.90;;;;;;5022835;28;21152;-74
2021/01/27 08:36:31;;;;;;;7.90;7.18;;;1.30;95.80;;;;;;5020064;28;20125;-74
2021/01/27 08:38:56;;;;;;;8.88;7.50;;;1.30;95.80;;;;;;5019679;28;20648;-74
2021/01/27 08:41:52;;;;;;;8.38;7.57;;;1.30;95.80;;;;;;5026591;28;20037;-74
2021/01/27 08:44:21;;;;;;;10.35;7.28;;;1.40;95.90;;;;;;5024143;28;20034;-75
2021/01/27 08:46:59;;;;;;;8.57;7.07;;;1.30;95.90;;;;;;5020165;28;20040;-75
2021/01/27 08:49:42;;;;;;;8.82;7.15;;;1.40;95.90;;;;;;5026540;28;20088;-75
2021/01/27 08:52:11;;;;;;;8.82;7.38;;;1.40;95.80;;;;;;5025002;28;20037;-75
2021/01/27 08:54:39;;;;;;;9.90;6.70;;;1.40;95.80;;;;;;5025807;28;20215;-75
2021/01/27 08:57:22;;;;;;;11.82;6.85;;;1.40;95.80;;;;;;5023926;28;20037;-76
2021/01/27 09:00:12;;;;;;;7.65;6.50;;;1.40;95.80;;;;;;5020892;28;20121;-75
2021/01/27 09:02:51;;;;;;;9.15;7.55;;;1.40;95.80;;;;;;5019459;28;20115;-75
2021/01/27 09:05:23;;;;;;;13.90;7.82;;;1.50;95.80;;;;;;5031636;28;20050;-75
2021/01/27 09:07:55;;;;;;;7.43;6.72;;;1.50;95.80;;;;;;5019900;28;20052;-76
2021/01/27 09:10:29;;;;;;;8.38;7.20;;;1.50;95.90;;;;;;5025025;28;20091;-76
2021/01/27 09:12:55;;;;;;;8.48;7.55;;;1.50;95.90;;;;;;5027482;28;20056;-75
2021/01/27 09:15:28;;;;;;;8.40;6.47;;;1.50;96.00;;;;;;5024937;28;20511;-76
2021/01/27 09:17:56;;;;;;;7.53;6.65;;;1.50;96.00;;;;;;5028858;28;20438;-75
2021/01/27 09:20:33;;;;;;;7.28;6.57;;;1.50;96.00;;;;;;5032332;28;20041;-75
2021/01/27 09:23:02;;;;;;;9.23;7.20;;;1.50;95.90;;;;;;5027026;28;20064;-76
2021/01/27 09:25:29;;;;;;;8.48;7.68;;;1.60;96.00;;;;;;5024086;28;20307;-75
2021/01/27 09:28:06;;;;;;;7.18;5.95;;;1.60;96.00;;;;;;5022067;28;20038;-76
2021/01/27 09:30:33;;;;;;;6.85;6.25;;;1.60;96.00;;;;;;5032832;28;20029;-75
2021/01/27 09:33:12;;;;;;;7.22;6.63;;;1.60;96.10;;;;;;5024307;28;20045;-75
2021/01/27 09:35:39;;;;;;;9.35;6.75;;;1.60;96.00;;;;;;5027461;28;20484;-76
2021/01/27 09:38:10;;;;;;;7.53;6.82;;;1.70;96.00;;;;;;5026517;28;20033;-76
2021/01/27 09:40:43;;;;;;;8.82;6.40;;;1.70;96.00;;;;;;5025343;28;20095;-76
2021/01/27 09:43:12;;;;;;;6.38;5.63;;;1.70;95.90;;;;;;5022046;28;20040;-76
2021/01/27 09:45:40;;;;;;;7.03;5.93;;;1.70;95.90;;;;;;5026357;28;20049;-76
2021/01/27 09:48:08;;;;;;;7.00;6.40;;;1.70;95.90;;;;;;5028008;28;20030;-76
2021/01/27 09:50:38;;;;;;;6.97;6.38;;;1.80;95.90;;;;;;5028566;28;20483;-76
2021/01/27 09:53:07;;;;;;;6.32;5.72;;;1.70;95.90;;;;;;5022052;28;20045;-76
2021/01/27 09:55:33;;;;;;;7.68;6.40;;;1.70;96.00;;;;;;5025840;28;20080;-77
2021/01/27 09:58:06;;;;;;;8.13;6.38;;;1.70;96.00;;;;;;5021143;28;20053;-76
2021/01/27 10:00:37;;;;;;;7.75;5.95;;;1.70;96.00;;;;;;5030729;28;20046;-76
2021/01/27 10:03:25;;;;;;;9.55;6.55;;;1.80;96.10;;;;;;5019772;28;20124;-76
2021/01/27 10:05:51;;;;;;;7.18;5.45;;;1.70;96.10;;;;;;5027776;28;20121;-76
2021/01/27 10:08:23;;;;;;;7.35;6.50;;;1.80;96.10;;;;;;5029001;28;20025;-76
2021/01/27 10:11:00;;;;;;;7.20;6.50;;;1.80;96.10;;;;;;5023631;28;20037;-76
2021/01/27 10:13:31;;;;;;;7.63;6.40;;;1.80;96.20;;;;;;5030535;28;20037;-76
2021/01/27 10:16:09;;;;;;;7.13;6.43;;;1.90;96.20;;;;;;5028041;28;20072;-76
2021/01/27 10:18:37;;;;;;;8.65;6.10;;;1.90;96.20;;;;;;5031095;28;20541;-76
2021/01/27 10:21:12;;;;;;;22.17;6.53;;;1.90;96.30;;;;;;5026672;28;20044;-76
2021/01/27 10:23:44;;;;;;;9.23;6.67;;;2.00;96.20;;;;;;5031813;28;20040;-76
2021/01/27 10:26:28;;;;;;;6.82;5.57;;;2.00;96.20;;;;;;5036646;28;20395;-76
2021/01/27 10:29:16;;;;;;;5.85;5.35;;;2.00;96.20;;;;;;5030182;28;20029;-76
2021/01/27 10:31:48;;;;;;;9.73;5.88;;;2.10;96.20;;;;;;5025728;28;20399;-75
2021/01/27 10:34:39;;;;;;;6.00;5.40;;;2.20;96.20;;;;;;5029249;28;20034;-75
2021/01/27 10:37:23;;;;;;;6.53;5.70;;;2.20;96.20;;;;;;5025751;28;20053;-76
2021/01/27 10:40:07;;;;;;;6.03;5.53;;;2.20;96.50;;;;;;5029427;28;20160;-75
2021/01/27 10:42:36;;;;;;;5.85;5.35;;;2.20;96.30;;;;;;5026178;28;20040;-75
2021/01/27 10:45:32;;;;;;;6.88;6.20;;;2.20;96.20;;;;;;5028633;28;20096;-75
2021/01/27 10:48:09;;;;;;;8.55;5.95;;;2.30;96.20;;;;;;5030750;28;20044;-76
2021/01/27 10:50:41;;;;;;;6.50;5.90;;;2.30;96.30;;;;;;5027879;28;20036;-76
2021/01/27 10:53:09;;;;;;;7.35;6.38;;;2.30;96.20;;;;;;5023793;28;20034;-76
2021/01/27 10:55:37;;;;;;;5.70;5.20;;;2.40;96.30;;;;;;5019413;28;20053;-76
2021/01/27 10:58:08;;;;;;;6.40;5.80;;;2.40;96.30;;;;;;5030450;28;20029;-73
2021/01/27 11:00:34;;;;;;;6.30;5.80;;;2.50;96.30;;;;;;5026444;28;20500;-76
2021/01/27 11:03:00;;;;;;;6.90;6.30;;;2.50;96.40;;;;;;5027916;28;20088;-77
2021/01/27 11:05:27;;;;;;;7.25;6.65;;;2.50;96.30;;;;;;5026129;28;20057;-83
2021/01/27 11:07:55;;;;;;;7.57;6.88;;;2.50;96.40;;;;;;5036884;28;20041;-80
2021/01/27 11:10:20;;;;;;;7.20;6.60;;;2.50;96.40;;;;;;5034075;28;20446;-81
2021/01/27 11:12:47;;;;;;;7.65;6.95;;;2.80;96.50;;;;;;5025048;28;20329;-78
2021/01/27 11:15:12;;;;;;;7.53;6.82;;;2.60;96.50;;;;;;5029094;28;20064;-77
2021/01/27 11:17:38;;;;;;;7.88;7.18;;;2.60;96.50;;;;;;5025136;28;20608;-78
2021/01/27 11:20:05;;;;;;;8.32;7.53;;;2.70;96.90;;;;;;5033160;28;20106;-78
2021/01/27 11:22:31;;;;;;;7.82;7.13;;;2.70;96.60;;;;;;5026627;28;20129;-77
2021/01/27 11:24:57;;;;;;;10.65;8.35;;;2.70;96.50;;;;;;5030749;28;20120;-77
2021/01/27 11:27:23;;;;;;;9.18;8.32;;;2.80;96.50;;;;;;5027052;28;20052;-78
2021/01/27 11:29:48;;;;;;;11.40;8.48;;;2.80;96.60;;;;;;5034438;28;20037;-78
2021/01/27 11:32:14;;;;;;;14.63;7.65;;;2.90;96.60;;;;;;5028280;28;20055;-78
2021/01/27 11:34:41;;;;;;;17.90;8.70;;;2.90;96.50;;;;;;5031027;28;20038;-78
2021/01/27 11:37:08;;;;;;;10.27;8.65;;;2.90;96.50;;;;;;5026813;28;20553;-78
2021/01/27 11:39:34;;;;;;;12.02;8.05;;;3.00;96.60;;;;;;5028373;28;20092;-79
2021/01/27 11:42:00;;;;;;;11.45;8.95;;;3.00;96.60;;;;;;5026170;28;20069;-79
2021/01/27 11:44:26;;;;;;;20.42;9.48;;;3.00;96.60;;;;;;5025325;28;20033;-78
2021/01/27 11:46:51;;;;;;;9.65;8.68;;;3.10;96.50;;;;;;5028492;28;20503;-78
2021/01/27 11:49:17;;;;;;;9.65;8.75;;;3.10;96.50;;;;;;5028030;28;20048;-78
2021/01/27 11:51:43;;;;;;;10.07;9.07;;;3.10;96.50;;;;;;5029367;28;20120;-78
2021/01/27 11:54:09;;;;;;;9.90;8.90;;;3.20;96.50;;;;;;5027180;28;20390;-79
2021/01/27 11:56:34;;;;;;;9.80;8.88;;;3.20;96.50;;;;;;5032360;28;20045;-78
2021/01/27 11:59:00;;;;;;;10.27;9.30;;;3.20;96.40;;;;;;5033644;28;20041;-78
2021/01/27 12:01:29;;;;;;;9.35;8.45;;;3.20;96.40;;;;;;5029172;28;20183;-78
2021/01/27 12:03:55;;;;;;;10.43;9.32;;;3.30;96.60;;;;;;5025287;28;20484;-78
2021/01/27 12:06:21;;;;;;;12.20;10.90;;;3.40;96.60;;;;;;5027340;28;20037;-78
2021/01/27 12:08:47;;;;;;;10.70;9.70;;;3.40;96.60;;;;;;5033892;28;20095;-78
2021/01/27 12:11:13;;;;;;;12.13;10.75;;;3.40;96.60;;;;;;5026711;28;20041;-78
2021/01/27 12:13:38;;;;;;;11.93;10.73;;;3.40;96.60;;;;;;5028267;28;20048;-78
2021/01/27 12:16:04;;;;;;;11.40;10.15;;;3.50;96.60;;;;;;5034706;28;20049;-78
2021/01/27 12:18:30;;;;;;;11.15;10.05;;;3.50;96.60;;;;;;5028689;28;20034;-79
2021/01/27 12:20:55;;;;;;;12.38;10.27;;;3.50;96.60;;;;;;5026608;28;20038;-78
2021/01/27 12:23:21;;;;;;;12.52;10.30;;;3.60;96.60;;;;;;5025824;28;20111;-77
2021/01/27 12:25:47;;;;;;;11.45;10.20;;;3.60;96.60;;;;;;5019809;28;20467;-78
2021/01/27 12:28:13;;;;;;;10.80;9.70;;;3.60;96.60;;;;;;5022395;28;20038;-77
2021/01/27 12:30:40;;;;;;;11.43;10.27;;;3.70;96.60;;;;;;5021668;28;20048;-77
2021/01/27 12:33:06;;;;;;;10.52;9.52;;;3.70;96.70;;;;;;5025597;28;20484;-78
2021/01/27 12:35:32;;;;;;;10.68;9.63;;;3.80;96.70;;;;;;5029980;28;20442;-77
2021/01/27 12:37:58;;;;;;;11.23;10.13;;;3.80;96.60;;;;;;5031159;28;20103;-77
2021/01/27 12:40:24;;;;;;;10.57;9.55;;;3.90;96.60;;;;;;5025018;28;20095;-77
2021/01/27 12:42:51;;;;;;;10.20;9.13;;;3.90;96.60;;;;;;5022295;28;20128;-77
2021/01/27 12:45:21;;;;;;;16.63;9.88;;;4.00;96.60;;;;;;5024280;28;20038;-77
2021/01/27 12:47:46;;;;;;;10.77;9.68;;;4.00;96.50;;;;;;5026181;28;20057;-77
2021/01/27 12:50:13;;;;;;;11.02;9.63;;;4.00;96.50;;;;;;5028402;28;20400;-77
2021/01/27 12:52:40;;;;;;;11.82;10.60;;;4.00;96.50;;;;;;5022648;28;20044;-77
2021/01/27 12:55:11;;;;;;;12.32;11.02;;;4.00;96.50;;;;;;5022690;28;20079;-77
2021/01/27 12:57:43;;;;;;;12.63;10.77;;;4.00;96.50;;;;;;5021409;28;20495;-78
2021/01/27 13:00:16;;;;;;;12.48;11.18;;;4.00;96.40;;;;;;5040026;28;20562;-77
2021/01/27 13:02:41;;;;;;;11.77;10.57;;;4.10;96.50;;;;;;5027937;28;20091;-77
2021/01/27 13:05:07;;;;;;;12.82;11.52;;;4.10;96.50;;;;;;5025577;28;20034;-77
2021/01/27 13:07:33;;;;;;;12.88;11.35;;;4.10;96.50;;;;;;5024263;28;20053;-77
2021/01/27 13:09:59;;;;;;;13.52;11.77;;;4.10;96.50;;;;;;5025174;28;20042;-77
2021/01/27 13:12:25;;;;;;;13.27;11.88;;;4.10;96.60;;;;;;5027585;28;20029;-77
2021/01/27 13:14:51;;;;;;;14.65;12.88;;;4.10;96.60;;;;;;5023111;28;20042;-77
2021/01/27 13:17:18;;;;;;;15.35;12.88;;;4.20;96.70;;;;;;5021064;28;20042;-77
2021/01/27 13:19:43;;;;;;;15.82;13.40;;;4.20;96.70;;;;;;5026674;28;20034;-77
2021/01/27 13:22:09;;;;;;;18.75;14.40;;;4.30;96.80;;;;;;5023313;28;20445;-77